Time;durP1;ratioP1;P1;durP2;ratioP2;P2;SDS_P1;SDS_P2;PMS_P1;PMS_P2;Temp;Humidity;BMP_temperature;BMP_pressure;BME280_temperature;BME280_humidity;BME280_pressure;Samples;Min_cycle;Max_cycle;Signal;HPM_P1;HPM_P2
2022/12/17 13:10:36;;;;;;;41.00;17.05;;;4.50;97.50;;;;;;10312969;28;20187;-63
2022/12/17 13:15:45;;;;;;;46.00;17.05;;;3.40;97.20;;;;;;10312606;28;20164;-61
2022/12/17 13:21:16;;;;;;;49.92;17.27;;;4.40;97.80;;;;;;10313044;28;20045;-63
2022/12/17 13:26:42;;;;;;;50.88;17.83;;;4.30;97.80;;;;;;10314616;28;20639;-65
2022/12/17 13:31:53;;;;;;;50.22;17.73;;;4.30;97.70;;;;;;10322406;28;20120;-62
2022/12/17 13:37:23;;;;;;;44.20;17.90;;;5.20;97.80;;;;;;10320140;28;20045;-63
2022/12/17 13:42:28;;;;;;;46.20;17.23;;;4.40;97.50;;;;;;10317945;28;20462;-63
2022/12/17 13:47:32;;;;;;;46.63;17.08;;;4.40;97.50;;;;;;10320427;28;20561;-65
2022/12/17 13:52:33;;;;;;;47.40;17.90;;;5.90;97.90;;;;;;10316127;28;20978;-64
2022/12/17 13:57:36;;;;;;;48.30;17.08;;;4.40;97.50;;;;;;10315972;28;20513;-64
2022/12/17 14:02:37;;;;;;;45.20;17.95;;;4.40;97.50;;;;;;10327348;28;20136;-62
2022/12/17 14:07:39;;;;;;;45.88;17.70;;;5.70;97.80;;;;;;10318828;28;20568;-61
2022/12/17 14:12:40;;;;;;;42.03;14.73;;;4.40;97.40;;;;;;10316311;28;21066;-62
2022/12/17 14:17:44;;;;;;;47.83;18.20;;;5.70;97.70;;;;;;10310162;28;20802;-62
2022/12/17 14:23:04;;;;;;;42.45;15.88;;;5.90;97.80;;;;;;10314877;28;20495;-62
2022/12/17 14:28:32;;;;;;;43.65;15.80;;;4.70;97.50;;;;;;10315037;28;20380;-59
2022/12/17 14:33:35;;;;;;;41.05;16.05;;;4.30;97.40;;;;;;10321253;28;20080;-66
2022/12/17 14:38:36;;;;;;;45.80;17.83;;;4.30;97.50;;;;;;10309633;28;20394;-62
2022/12/17 14:43:37;;;;;;;45.08;16.85;;;4.20;97.40;;;;;;10316289;28;20425;-63
2022/12/17 14:54:15;;;;;;;;;;;4.20;97.40;;;;;;10314922;28;20037;-62
2022/12/17 14:59:35;;;;;;;40.13;15.90;;;4.20;97.20;;;;;;10310667;28;20483;-63
2022/12/17 15:04:37;;;;;;;39.75;15.10;;;4.20;97.40;;;;;;10322229;28;20564;-62
2022/12/17 15:09:39;;;;;;;38.83;15.68;;;4.20;97.40;;;;;;10315629;28;20921;-62
2022/12/17 15:14:40;;;;;;;38.67;14.02;;;4.10;97.40;;;;;;10315980;28;20072;-63
2022/12/17 15:19:40;;;;;;;41.20;15.68;;;4.10;97.40;;;;;;10320985;28;20278;-62
2022/12/17 15:24:42;;;;;;;40.95;14.95;;;4.10;97.40;;;;;;10321745;28;20314;-62
2022/12/17 15:29:43;;;;;;;38.28;14.68;;;4.10;97.40;;;;;;10326752;28;20129;-62
2022/12/17 15:34:43;;;;;;;39.15;15.55;;;4.10;97.40;;;;;;10320435;28;20040;-61
2022/12/17 15:39:44;;;;;;;39.25;13.93;;;4.10;97.40;;;;;;10314010;28;20436;-62
2022/12/17 15:44:45;;;;;;;38.35;14.50;;;4.00;97.60;;;;;;10308705;28;20036;-61
2022/12/17 15:49:45;;;;;;;39.78;14.82;;;4.00;97.40;;;;;;10304099;28;20029;-61
2022/12/17 15:54:48;;;;;;;42.60;15.13;;;4.00;97.40;;;;;;10302045;28;20042;-61
2022/12/17 15:59:50;;;;;;;41.20;14.50;;;4.00;97.40;;;;;;10349290;28;20033;-66
2022/12/17 16:04:51;;;;;;;39.55;14.02;;;4.00;97.70;;;;;;10394974;28;20037;-60
2022/12/17 16:09:52;;;;;;;33.83;13.85;;;4.10;97.60;;;;;;10394443;28;20029;-67
2022/12/17 16:14:52;;;;;;;40.08;14.38;;;4.30;97.50;;;;;;10393579;28;20041;-69
2022/12/17 16:19:53;;;;;;;41.25;14.13;;;4.10;97.50;;;;;;10393605;28;20124;-63
2022/12/17 16:24:59;;;;;;;41.42;14.43;;;4.10;97.50;;;;;;10392949;28;20029;-69
2022/12/17 16:30:04;;;;;;;39.00;13.90;;;4.00;97.60;;;;;;10375076;28;20033;-63
2022/12/17 16:35:27;;;;;;;33.22;12.07;;;4.30;98.60;;;;;;10391703;28;20029;-73
2022/12/17 16:40:28;;;;;;;34.53;12.98;;;4.50;99.90;;;;;;10391774;28;20046;-66
2022/12/17 16:45:28;;;;;;;32.28;11.88;;;5.20;97.50;;;;;;10424235;22;20521;-68
2022/12/17 16:50:29;;;;;;;43.90;14.30;;;5.20;97.50;;;;;;10389126;28;20020;-68
2022/12/17 16:55:30;;;;;;;33.97;12.82;;;5.00;97.40;;;;;;10391569;28;20029;-68
2022/12/17 17:00:30;;;;;;;35.35;12.25;;;4.90;97.60;;;;;;10423108;23;20107;-68
2022/12/17 17:05:36;;;;;;;34.65;12.38;;;5.50;97.90;;;;;;10374353;28;21431;-69
2022/12/17 17:10:37;;;;;;;40.33;13.82;;;4.60;97.80;;;;;;10394957;28;20272;-69
2022/12/17 17:15:37;;;;;;;37.17;12.88;;;4.50;97.90;;;;;;10409227;22;20540;-68
2022/12/17 17:20:38;;;;;;;41.63;13.27;;;4.40;97.90;;;;;;10388870;28;20112;-68
2022/12/17 17:25:38;;;;;;;36.47;14.85;;;4.30;97.90;;;;;;10391041;28;20117;-70
2022/12/17 17:30:39;;;;;;;40.72;13.68;;;4.30;97.90;;;;;;10388715;28;20276;-67
2022/12/17 17:35:40;;;;;;;38.00;13.30;;;4.20;97.90;;;;;;10392866;28;20032;-70
2022/12/17 17:40:40;;;;;;;35.45;12.80;;;4.20;97.90;;;;;;10393265;28;20021;-67
2022/12/17 17:45:42;;;;;;;40.40;13.57;;;4.10;97.90;;;;;;10394793;28;20041;-67
2022/12/17 17:50:42;;;;;;;34.05;12.80;;;5.50;98.20;;;;;;10395840;28;20687;-67
2022/12/17 17:55:43;;;;;;;32.33;12.50;;;4.10;97.80;;;;;;10396983;28;20038;-67
2022/12/17 18:00:44;;;;;;;37.75;12.93;;;4.10;97.80;;;;;;10395265;28;20128;-65
2022/12/17 18:05:44;;;;;;;38.80;13.85;;;4.70;98.00;;;;;;10398357;28;20034;-66
2022/12/17 18:10:55;;;;;;;36.47;13.27;;;4.10;97.80;;;;;;10399637;28;20466;-68
2022/12/17 18:16:00;;;;;;;37.92;13.27;;;4.10;97.80;;;;;;10398469;28;20130;-68
2022/12/17 18:21:04;;;;;;;33.95;12.75;;;4.10;97.70;;;;;;10398505;28;20083;-71
2022/12/17 18:26:09;;;;;;;33.53;12.77;;;4.00;97.70;;;;;;10397510;28;20151;-67
2022/12/17 18:31:21;;;;;;;40.80;14.05;;;4.00;97.70;;;;;;10389312;28;20056;-68
2022/12/17 18:36:29;;;;;;;34.50;13.20;;;4.00;97.70;;;;;;10387122;28;20044;-68
2022/12/17 18:46:49;;;;;;;33.85;13.43;;;4.20;97.70;;;;;;10392972;28;20029;-69
2022/12/17 18:51:51;;;;;;;36.47;13.95;;;4.80;97.80;;;;;;10395447;28;20025;-68
2022/12/17 18:56:53;;;;;;;39.33;13.65;;;3.90;97.60;;;;;;10393338;28;20103;-68
2022/12/17 19:01:55;;;;;;;33.03;12.63;;;4.20;97.70;;;;;;10395870;28;20259;-66
2022/12/17 19:06:55;;;;;;;38.55;13.63;;;4.00;97.60;;;;;;10396268;28;20485;-69
2022/12/17 19:11:57;;;;;;;34.28;12.35;;;4.70;97.70;;;;;;10394376;28;20033;-69
2022/12/17 19:16:58;;;;;;;40.22;13.55;;;4.30;97.90;;;;;;10394267;28;21061;-68
2022/12/17 19:21:59;;;;;;;35.47;13.32;;;3.80;97.50;;;;;;10395688;28;20026;-64
2022/12/17 19:26:59;;;;;;;34.83;12.85;;;3.80;97.50;;;;;;10388038;28;20026;-69
2022/12/17 19:32:00;;;;;;;40.42;13.73;;;4.70;97.70;;;;;;10393830;28;20048;-67
2022/12/17 19:37:00;;;;;;;35.33;13.02;;;4.80;97.70;;;;;;10394864;28;20049;-67
2022/12/17 19:42:01;;;;;;;39.47;14.50;;;5.20;97.70;;;;;;10394796;28;20017;-67
2022/12/17 19:47:02;;;;;;;36.65;14.65;;;3.70;97.40;;;;;;10378086;28;20029;-70
2022/12/17 19:52:03;;;;;;;38.35;15.32;;;4.00;97.40;;;;;;10393171;28;20033;-68
2022/12/17 19:57:04;;;;;;;33.40;13.32;;;3.70;97.40;;;;;;10376316;28;20124;-68
2022/12/17 20:02:05;;;;;;;37.10;14.73;;;3.70;97.30;;;;;;10393739;28;20013;-70
2022/12/17 20:07:09;;;;;;;39.80;15.07;;;3.70;97.30;;;;;;10391103;28;20041;-70
2022/12/17 20:12:12;;;;;;;33.72;13.50;;;3.70;97.40;;;;;;10373935;28;20497;-68
2022/12/17 20:17:19;;;;;;;38.97;13.27;;;3.70;97.30;;;;;;10391456;28;20038;-67
2022/12/17 20:22:20;;;;;;;34.78;13.38;;;3.70;97.40;;;;;;10392675;28;20401;-68
2022/12/17 20:27:21;;;;;;;35.50;13.60;;;5.30;97.70;;;;;;10392998;28;20063;-67
2022/12/17 20:32:21;;;;;;;38.03;14.27;;;3.70;97.20;;;;;;10392543;28;20029;-68
2022/12/17 20:37:22;;;;;;;39.53;13.65;;;3.60;97.20;;;;;;10392797;28;22004;-68
2022/12/17 20:42:22;;;;;;;34.25;13.68;;;3.70;97.20;;;;;;10392187;28;20120;-68
2022/12/17 20:47:23;;;;;;;33.15;13.98;;;4.30;97.30;;;;;;10391735;28;20107;-68
2022/12/17 20:52:24;;;;;;;36.20;14.10;;;3.60;97.20;;;;;;10392952;28;20041;-68
2022/12/17 20:57:24;;;;;;;35.28;14.13;;;3.60;97.10;;;;;;10392344;28;20478;-68
2022/12/17 21:02:25;;;;;;;38.08;14.07;;;3.60;97.20;;;;;;10392370;28;20297;-68
2022/12/17 21:07:26;;;;;;;36.20;14.30;;;3.60;97.10;;;;;;10392534;28;20006;-67
2022/12/17 21:13:27;;;;;;;35.65;13.98;;;3.90;97.20;;;;;;10391436;28;20029;-67
2022/12/17 21:17:47;;;;;;;35.78;13.98;;;3.60;97.10;;;;;;10389469;28;20553;-68
2022/12/17 21:22:48;;;;;;;38.50;13.70;;;5.10;97.50;;;;;;10388803;28;20026;-68
2022/12/17 21:27:54;;;;;;;35.22;14.23;;;3.60;97.10;;;;;;10391448;28;20035;-71
2022/12/17 21:32:55;;;;;;;33.45;13.13;;;3.60;97.10;;;;;;10390310;28;20037;-70
2022/12/17 21:37:56;;;;;;;37.42;13.75;;;3.60;97.10;;;;;;10391003;28;20447;-70
2022/12/17 21:43:02;;;;;;;33.85;13.32;;;3.60;97.10;;;;;;10390477;28;20024;-71
2022/12/17 21:48:09;;;;;;;39.17;15.05;;;4.30;97.20;;;;;;10388784;28;20025;-68
2022/12/17 21:53:12;;;;;;;36.50;13.88;;;4.30;97.20;;;;;;10370793;28;20032;-70
2022/12/17 21:58:14;;;;;;;37.53;13.48;;;4.70;97.40;;;;;;10392679;28;20029;-71
2022/12/17 22:03:14;;;;;;;35.67;13.38;;;3.80;97.10;;;;;;10398040;28;20493;-68
2022/12/17 22:08:15;;;;;;;36.50;13.98;;;3.50;97.00;;;;;;10397431;28;20112;-68
2022/12/17 22:18:35;;;;;;;;;;;3.50;97.00;;;;;;10399708;28;20037;-68
2022/12/17 22:23:36;;;;;;;32.72;12.23;;;3.50;96.80;;;;;;10399249;28;19928;-68
2022/12/17 22:28:36;;;;;;;32.65;12.40;;;3.50;96.90;;;;;;10398497;28;20033;-68
2022/12/17 22:33:37;;;;;;;39.03;12.50;;;4.30;97.10;;;;;;10397416;28;20052;-69
2022/12/17 22:38:38;;;;;;;38.60;14.10;;;3.50;96.90;;;;;;10396204;28;20204;-69
2022/12/17 22:43:38;;;;;;;39.15;13.65;;;3.50;96.90;;;;;;10388791;28;20021;-68
2022/12/17 22:48:39;;;;;;;35.90;12.85;;;3.50;96.90;;;;;;10387036;28;20423;-68
2022/12/17 22:53:40;;;;;;;41.83;13.32;;;3.50;96.90;;;;;;10396444;28;20070;-70
2022/12/17 22:58:40;;;;;;;37.72;14.55;;;3.50;97.10;;;;;;10378146;28;20044;-69
2022/12/17 23:03:44;;;;;;;37.15;13.30;;;3.50;96.90;;;;;;10397207;28;20029;-69
2022/12/17 23:08:45;;;;;;;36.45;13.05;;;4.10;97.10;;;;;;10379756;28;20058;-69
2022/12/17 23:13:46;;;;;;;38.65;13.48;;;3.40;97.00;;;;;;10395741;28;20064;-69
2022/12/17 23:18:48;;;;;;;39.88;13.07;;;3.40;96.90;;;;;;10396282;28;20429;-69
2022/12/17 23:23:54;;;;;;;38.72;13.43;;;3.40;96.90;;;;;;10399950;28;20034;-69
2022/12/17 23:28:57;;;;;;;37.53;14.23;;;3.40;96.90;;;;;;10395134;28;20087;-68
2022/12/17 23:33:58;;;;;;;35.78;13.73;;;3.70;96.90;;;;;;10394775;28;20052;-67
2022/12/17 23:38:59;;;;;;;36.35;13.20;;;3.40;96.90;;;;;;10397179;28;20017;-67
2022/12/17 23:44:00;;;;;;;36.00;13.23;;;3.40;96.90;;;;;;10393732;28;20025;-67
2022/12/17 23:49:04;;;;;;;36.92;13.25;;;3.40;96.80;;;;;;10390433;28;20025;-68
2022/12/17 23:54:05;;;;;;;34.33;12.35;;;3.60;96.90;;;;;;10395002;28;20076;-69
2022/12/17 23:59:06;;;;;;;36.50;13.18;;;3.40;96.80;;;;;;10394061;28;20080;-67
